createdAt,value
2023-03-04T00:00:46.192Z,-0.24
2023-03-04T00:01:27.899Z,-0.37
2023-03-04T00:02:09.657Z,-0.31
2023-03-04T00:02:51.388Z,-0.30
2023-03-04T00:03:33.026Z,-0.32
2023-03-04T00:04:14.926Z,-0.26
2023-03-04T00:04:56.503Z,-0.23
2023-03-04T00:05:38.207Z,-0.34
2023-03-04T00:06:19.886Z,-0.21
2023-03-04T00:07:01.506Z,-0.29
2023-03-04T00:07:43.090Z,-0.29
2023-03-04T00:08:24.810Z,-0.21
2023-03-04T00:09:06.451Z,-0.22
2023-03-04T00:09:48.234Z,-0.24
2023-03-04T00:10:29.944Z,-0.23
2023-03-04T00:11:11.627Z,-0.40
2023-03-04T00:11:53.301Z,-0.54
2023-03-04T00:12:34.928Z,-0.26
2023-03-04T00:13:16.923Z,-0.24
2023-03-04T00:13:59.067Z,-0.86
2023-03-04T00:14:41.438Z,-0.47
2023-03-04T00:15:23.191Z,-0.49
2023-03-04T00:16:05.126Z,-0.41
2023-03-04T00:16:46.873Z,-0.84
2023-03-04T00:17:30.061Z,-0.76
2023-03-04T00:18:11.691Z,-0.40
2023-03-04T00:18:54.298Z,-0.34
2023-03-04T00:19:36.058Z,-0.72
2023-03-04T00:20:17.847Z,-0.34
2023-03-04T00:20:59.454Z,-0.40
2023-03-04T00:21:41.116Z,-0.28
2023-03-04T00:22:22.722Z,-0.27
2023-03-04T00:23:04.345Z,-0.46
2023-03-04T00:23:45.969Z,-0.41
2023-03-04T00:24:27.589Z,-0.34
2023-03-04T00:25:09.571Z,-0.52
2023-03-04T00:25:51.143Z,-0.28
2023-03-04T00:26:33.012Z,-0.58
2023-03-04T00:27:14.711Z,-0.37
2023-03-04T00:27:58.269Z,-0.29
2023-03-04T00:28:40.292Z,-0.39
2023-03-04T00:29:22.145Z,-0.30
2023-03-04T00:30:05.574Z,-0.28
2023-03-04T00:30:47.223Z,-0.60
2023-03-04T00:31:29.590Z,-0.27
2023-03-04T00:32:11.320Z,-0.27
2023-03-04T00:32:53.009Z,-0.74
2023-03-04T00:33:35.220Z,-0.31
2023-03-04T00:34:16.997Z,-0.74
2023-03-04T00:34:58.620Z,-0.31
2023-03-04T00:35:40.521Z,-0.33
2023-03-04T00:36:22.145Z,-0.34
2023-03-04T00:37:04.071Z,-0.37
2023-03-04T00:37:45.697Z,-0.82
2023-03-04T00:38:27.398Z,-0.39
2023-03-04T00:39:09.192Z,-0.39
2023-03-04T00:39:50.792Z,-0.40
2023-03-04T00:40:32.482Z,-0.57
2023-03-04T00:41:14.212Z,-0.57
2023-03-04T00:41:56.568Z,-0.41
2023-03-04T00:42:38.268Z,-0.48
2023-03-04T00:43:20.216Z,-0.47
2023-03-04T00:44:01.790Z,-0.82
2023-03-04T00:44:43.490Z,-0.66
2023-03-04T00:45:25.135Z,-0.46
2023-03-04T00:46:07.243Z,-0.57
2023-03-04T00:46:48.941Z,-0.53
2023-03-04T00:47:30.620Z,-0.50
2023-03-04T00:48:12.768Z,-0.53
2023-03-04T00:48:54.396Z,-0.74
2023-03-04T00:49:37.958Z,-0.72
2023-03-04T00:50:19.930Z,-0.58
2023-03-04T00:51:01.598Z,-0.60
2023-03-04T00:51:43.226Z,-0.61
2023-03-04T00:52:24.874Z,-0.74
2023-03-04T00:53:06.673Z,-0.90
2023-03-04T00:53:48.658Z,-0.70
2023-03-04T00:54:30.288Z,-0.93
2023-03-04T00:55:11.982Z,-0.91
2023-03-04T00:55:53.630Z,-0.96
2023-03-04T00:56:35.272Z,-0.88
2023-03-04T00:57:16.853Z,-0.73
2023-03-04T00:57:58.449Z,-1.05
2023-03-04T00:58:40.388Z,-0.70
2023-03-04T00:59:22.006Z,-0.85
2023-03-04T01:00:04.946Z,-0.76
2023-03-04T01:00:46.628Z,-0.83
2023-03-04T01:01:28.467Z,-0.74
2023-03-04T01:02:10.724Z,-0.82
2023-03-04T01:02:52.420Z,-0.89
2023-03-04T01:03:34.660Z,-0.88
2023-03-04T01:04:16.225Z,-1.09
2023-03-04T01:04:57.841Z,-1.04
2023-03-04T01:05:39.883Z,-1.08
2023-03-04T01:06:21.595Z,-1.00
2023-03-04T01:07:03.826Z,-1.04
2023-03-04T01:07:45.512Z,-1.24
2023-03-04T01:08:27.206Z,-1.11
2023-03-04T01:09:08.897Z,-1.22
2023-03-04T01:09:51.063Z,-1.17
2023-03-04T01:10:33.528Z,-1.03
2023-03-04T01:11:15.178Z,-1.12
2023-03-04T01:11:57.169Z,-1.01
2023-03-04T01:12:40.241Z,-1.01
2023-03-04T01:13:21.854Z,-1.00
2023-03-04T01:14:03.929Z,-1.04
2023-03-04T01:14:47.156Z,-0.98
2023-03-04T01:15:28.763Z,-0.96
2023-03-04T01:16:10.998Z,-1.14
2023-03-04T01:16:52.765Z,-1.12
2023-03-04T01:17:34.394Z,-0.94
2023-03-04T01:18:16.244Z,-0.99
2023-03-04T01:18:57.877Z,-0.99
2023-03-04T01:19:39.525Z,-0.90
2023-03-04T01:20:21.178Z,-0.94
2023-03-04T01:21:03.138Z,-1.00
2023-03-04T01:21:44.948Z,-0.90
2023-03-04T01:22:26.831Z,-0.95
2023-03-04T01:23:08.473Z,-0.90
2023-03-04T01:23:50.478Z,-1.11
2023-03-04T01:24:32.228Z,-1.09
2023-03-04T01:25:13.881Z,-0.90
2023-03-04T01:25:55.636Z,-0.96
2023-03-04T01:26:37.225Z,-0.90
2023-03-04T01:27:18.881Z,-0.92
2023-03-04T01:28:00.560Z,-0.96
2023-03-04T01:28:42.286Z,-1.22
2023-03-04T01:29:23.907Z,-0.93
2023-03-04T01:30:06.406Z,-1.04
2023-03-04T01:30:48.128Z,-0.99
2023-03-04T01:31:29.924Z,-0.94
2023-03-04T01:32:11.686Z,-0.94
2023-03-04T01:32:53.380Z,-0.95
2023-03-04T01:33:35.016Z,-0.97
2023-03-04T01:34:18.174Z,-1.11
2023-03-04T01:34:59.781Z,-0.98
2023-03-04T01:35:41.552Z,-1.27
2023-03-04T01:36:23.191Z,-1.01
2023-03-04T01:37:05.284Z,-1.01
2023-03-04T01:37:46.922Z,-1.02
2023-03-04T01:38:28.611Z,-1.00
2023-03-04T01:39:10.252Z,-1.10
2023-03-04T01:39:51.812Z,-1.02
2023-03-04T01:40:33.796Z,-0.99
2023-03-04T01:41:19.000Z,-0.98
2023-03-04T01:42:00.714Z,-0.97
2023-03-04T01:42:42.459Z,-0.99
2023-03-04T01:43:27.625Z,-1.00
2023-03-04T01:44:10.922Z,-0.98
2023-03-04T01:44:53.034Z,-0.97
2023-03-04T01:45:35.708Z,-1.20
2023-03-04T01:46:17.803Z,-1.14
2023-03-04T01:46:59.556Z,-1.22
2023-03-04T01:47:48.275Z,-1.15
2023-03-04T01:48:37.270Z,-1.40
2023-03-04T01:49:19.960Z,-1.32
2023-03-04T01:50:04.774Z,-1.28
2023-03-04T01:50:46.443Z,-1.29
2023-03-04T01:51:28.080Z,-1.29
2023-03-04T01:52:14.018Z,-1.64
2023-03-04T01:52:55.748Z,-1.35
2023-03-04T01:53:37.557Z,-1.28
2023-03-04T01:54:20.431Z,-1.25
2023-03-04T01:55:02.730Z,-1.36
2023-03-04T01:55:44.522Z,-1.30
2023-03-04T01:56:30.601Z,-1.24
2023-03-04T01:57:23.951Z,-1.60
2023-03-04T01:58:06.054Z,-1.29
2023-03-04T01:59:07.375Z,-1.31
2023-03-04T02:00:19.503Z,-1.22
2023-03-04T02:01:01.178Z,-1.17
2023-03-04T02:01:46.399Z,-1.18
2023-03-04T02:02:27.996Z,-1.21
2023-03-04T02:03:15.198Z,-1.18
2023-03-04T02:03:56.841Z,-1.18
2023-03-04T02:04:39.619Z,-1.18
2023-03-04T02:05:22.301Z,-1.19
2023-03-04T02:06:05.625Z,-1.28
2023-03-04T02:06:49.006Z,-1.20
2023-03-04T02:07:30.582Z,-1.34
2023-03-04T02:08:15.138Z,-1.45
2023-03-04T02:08:57.385Z,-1.22
2023-03-04T02:09:38.983Z,-1.22
2023-03-04T02:10:21.221Z,-1.25
2023-03-04T02:11:03.083Z,-1.29
2023-03-04T02:11:46.473Z,-1.38
2023-03-04T02:12:28.130Z,-1.38
2023-03-04T02:13:10.601Z,-1.33
2023-03-04T02:13:52.795Z,-1.90
2023-03-04T02:14:35.783Z,-1.38
2023-03-04T02:15:18.253Z,-1.36
2023-03-04T02:16:00.096Z,-1.70
2023-03-04T02:16:42.555Z,-1.38
2023-03-04T02:17:26.245Z,-1.64
2023-03-04T02:18:22.230Z,-1.41
2023-03-04T02:19:09.590Z,-1.46
2023-03-04T02:20:02.922Z,-1.62
2023-03-04T02:21:17.435Z,-1.50
2023-03-04T02:21:59.157Z,-1.50
2023-03-04T02:22:51.856Z,-1.49
2023-03-04T02:23:44.632Z,-1.46
2023-03-04T02:24:31.300Z,-1.43
2023-03-04T02:25:22.227Z,-1.41
2023-03-04T02:26:09.818Z,-1.41
2023-03-04T02:26:51.455Z,-1.63
2023-03-04T02:27:33.219Z,-1.83
2023-03-04T02:28:15.182Z,-1.40
2023-03-04T02:28:59.809Z,-1.39
2023-03-04T02:29:41.491Z,-1.51
2023-03-04T02:30:25.361Z,-1.42
2023-03-04T02:31:07.196Z,-1.32
2023-03-04T02:31:51.826Z,-1.47
2023-03-04T02:32:33.800Z,-1.36
2023-03-04T02:33:19.700Z,-1.36
2023-03-04T02:34:05.010Z,-1.40
2023-03-04T02:34:49.249Z,-1.56
2023-03-04T02:35:30.972Z,-1.44
2023-03-04T02:36:12.943Z,-1.90
2023-03-04T02:36:56.194Z,-1.46
2023-03-04T02:37:37.802Z,-1.51
2023-03-04T02:38:19.454Z,-1.42
2023-03-04T02:39:11.284Z,-1.46
2023-03-04T02:39:53.161Z,-1.41
2023-03-04T02:40:35.299Z,-1.40
2023-03-04T02:41:21.734Z,-1.45
2023-03-04T02:42:04.023Z,-1.39
2023-03-04T02:42:47.761Z,-1.45
2023-03-04T02:43:29.395Z,-1.42
2023-03-04T02:44:31.745Z,-1.45
2023-03-04T02:45:37.307Z,-1.47
2023-03-04T02:46:21.518Z,-1.57
2023-03-04T02:47:05.165Z,-1.53
2023-03-04T02:47:47.533Z,-1.59
2023-03-04T02:48:29.132Z,-1.69
2023-03-04T02:49:10.806Z,-1.71
2023-03-04T02:49:52.691Z,-1.91
2023-03-04T02:50:43.535Z,-1.79
2023-03-04T02:51:25.115Z,-1.89
2023-03-04T02:52:12.851Z,-1.78
2023-03-04T02:52:54.449Z,-1.82
2023-03-04T02:53:36.080Z,-2.02
2023-03-04T02:54:20.113Z,-1.96
2023-03-04T02:55:01.761Z,-1.78
2023-03-04T02:55:43.758Z,-1.78
2023-03-04T02:56:26.272Z,-2.31
2023-03-04T02:57:10.856Z,-1.78
2023-03-04T02:57:55.614Z,-1.77
2023-03-04T02:58:38.294Z,-1.78
2023-03-04T02:59:21.795Z,-1.75
2023-03-04T03:00:04.488Z,-1.75
2023-03-04T03:00:46.089Z,-1.74
2023-03-04T03:01:29.746Z,-1.91
2023-03-04T03:02:11.663Z,-1.90
2023-03-04T03:02:53.699Z,-1.95
2023-03-04T03:03:35.558Z,-1.73
2023-03-04T03:04:18.864Z,-1.99
2023-03-04T03:05:01.928Z,-1.77
2023-03-04T03:05:43.739Z,-1.79
2023-03-04T03:06:25.518Z,-1.81
2023-03-04T03:07:07.417Z,-2.05
2023-03-04T03:07:49.125Z,-1.86
2023-03-04T03:08:30.797Z,-1.88
2023-03-04T03:09:12.552Z,-1.98
2023-03-04T03:09:54.590Z,-1.83
2023-03-04T03:10:36.399Z,-1.85
2023-03-04T03:11:18.664Z,-1.82
2023-03-04T03:12:00.310Z,-1.81
2023-03-04T03:12:43.292Z,-1.93
2023-03-04T03:13:25.917Z,-1.77
2023-03-04T03:14:07.648Z,-1.77
2023-03-04T03:14:49.283Z,-1.73
2023-03-04T03:15:33.573Z,-1.86
2023-03-04T03:16:15.256Z,-1.73
2023-03-04T03:16:57.728Z,-1.85
2023-03-04T03:17:40.300Z,-1.88
2023-03-04T03:18:21.848Z,-1.73
2023-03-04T03:19:03.594Z,-1.93
2023-03-04T03:19:45.589Z,-1.75
2023-03-04T03:20:27.311Z,-1.81
2023-03-04T03:21:08.963Z,-1.89
2023-03-04T03:21:50.645Z,-1.77
2023-03-04T03:22:32.205Z,-1.76
2023-03-04T03:23:13.864Z,-1.77
2023-03-04T03:23:55.482Z,-1.78
2023-03-04T03:24:37.075Z,-1.80
2023-03-04T03:25:19.040Z,-1.82
2023-03-04T03:26:01.742Z,-1.83
2023-03-04T03:26:43.434Z,-1.86
2023-03-04T03:27:25.102Z,-1.92
2023-03-04T03:28:06.783Z,-1.91
2023-03-04T03:28:48.518Z,-2.01
2023-03-04T03:29:30.148Z,-1.95
2023-03-04T03:30:14.628Z,-2.06
2023-03-04T03:30:56.471Z,-1.88
2023-03-04T03:31:38.163Z,-2.36
2023-03-04T03:32:19.835Z,-1.95
2023-03-04T03:33:05.742Z,-1.97
2023-03-04T03:33:47.410Z,-2.02
2023-03-04T03:34:29.108Z,-2.25
2023-03-04T03:35:10.989Z,-2.10
2023-03-04T03:35:52.765Z,-2.24
2023-03-04T03:36:34.417Z,-2.70
2023-03-04T03:37:16.322Z,-2.11
2023-03-04T03:37:57.974Z,-2.07
2023-03-04T03:38:39.624Z,-2.06
2023-03-04T03:39:21.194Z,-2.05
2023-03-04T03:40:03.800Z,-2.07
2023-03-04T03:40:45.407Z,-2.27
2023-03-04T03:41:27.074Z,-2.12
2023-03-04T03:42:08.694Z,-2.50
2023-03-04T03:42:50.313Z,-2.11
2023-03-04T03:43:31.918Z,-2.06
2023-03-04T03:44:13.586Z,-2.33
2023-03-04T03:44:55.982Z,-2.05
2023-03-04T03:45:37.684Z,-2.22
2023-03-04T03:46:19.329Z,-2.05
2023-03-04T03:47:00.925Z,-2.18
2023-03-04T03:47:42.525Z,-2.28
2023-03-04T03:48:24.155Z,-2.14
2023-03-04T03:49:05.727Z,-2.31
2023-03-04T03:49:47.381Z,-2.21
2023-03-04T03:50:29.434Z,-2.26
2023-03-04T03:51:11.112Z,-2.20
2023-03-04T03:51:53.695Z,-2.20
2023-03-04T03:52:35.404Z,-2.33
2023-03-04T03:53:17.066Z,-2.22
2023-03-04T03:53:58.703Z,-2.33
2023-03-04T03:54:40.291Z,-2.57
2023-03-04T03:55:22.173Z,-3.18
2023-03-04T03:56:04.186Z,-2.29
2023-03-04T03:56:45.853Z,-2.34
2023-03-04T03:57:28.555Z,-2.27
2023-03-04T03:58:10.125Z,-2.36
2023-03-04T03:58:51.672Z,-2.51
2023-03-04T03:59:33.301Z,-2.73
2023-03-04T04:00:16.271Z,-2.49
2023-03-04T04:00:58.528Z,-2.60
2023-03-04T04:01:40.248Z,-2.58
2023-03-04T04:02:22.637Z,-2.67
2023-03-04T04:03:04.550Z,-2.55
2023-03-04T04:03:46.410Z,-2.67
2023-03-04T04:04:28.037Z,-2.55
2023-03-04T04:05:10.868Z,-2.48
2023-03-04T04:05:52.561Z,-2.41
2023-03-04T04:06:34.149Z,-2.58
2023-03-04T04:07:15.854Z,-2.39
2023-03-04T04:07:57.564Z,-2.64
2023-03-04T04:08:39.182Z,-2.49
2023-03-04T04:09:20.825Z,-2.78
2023-03-04T04:10:02.565Z,-2.62
2023-03-04T04:10:44.531Z,-2.38
2023-03-04T04:11:26.240Z,-2.47
2023-03-04T04:12:08.276Z,-2.83
2023-03-04T04:12:49.936Z,-2.38
2023-03-04T04:13:31.515Z,-2.39
2023-03-04T04:14:14.412Z,-2.39
2023-03-04T04:14:56.035Z,-2.59
2023-03-04T04:15:38.679Z,-2.45
2023-03-04T04:16:20.584Z,-2.44
2023-03-04T04:17:02.467Z,-2.45
2023-03-04T04:17:44.149Z,-2.45
2023-03-04T04:18:25.899Z,-2.50
2023-03-04T04:19:08.044Z,-2.45
2023-03-04T04:19:49.666Z,-2.44
2023-03-04T04:20:31.812Z,-2.44
2023-03-04T04:21:14.206Z,-2.42
2023-03-04T04:21:55.900Z,-2.60
2023-03-04T04:22:37.661Z,-2.37
2023-03-04T04:23:19.383Z,-2.33
2023-03-04T04:24:01.022Z,-2.28
2023-03-04T04:24:42.828Z,-2.29
2023-03-04T04:25:24.737Z,-2.21
2023-03-04T04:26:06.429Z,-2.18
2023-03-04T04:26:48.039Z,-2.18
2023-03-04T04:27:29.677Z,-2.19
2023-03-04T04:28:11.300Z,-2.07
2023-03-04T04:28:52.989Z,-2.24
2023-03-04T04:29:34.605Z,-1.95
2023-03-04T04:30:16.344Z,-1.91
2023-03-04T04:30:58.006Z,-1.88
2023-03-04T04:31:39.853Z,-1.87
2023-03-04T04:32:21.485Z,-2.03
2023-03-04T04:33:04.754Z,-1.88
2023-03-04T04:33:46.436Z,-2.00
2023-03-04T04:34:28.101Z,-2.04
2023-03-04T04:35:09.903Z,-1.88
2023-03-04T04:35:51.659Z,-2.76
2023-03-04T04:36:33.523Z,-1.89
2023-03-04T04:37:15.184Z,-1.95
2023-03-04T04:37:57.144Z,-2.02
2023-03-04T04:38:38.904Z,-1.84
2023-03-04T04:39:20.525Z,-1.81
2023-03-04T04:40:03.645Z,-1.84
2023-03-04T04:40:45.322Z,-1.86
2023-03-04T04:41:31.965Z,-1.89
2023-03-04T04:42:13.709Z,-2.01
2023-03-04T04:42:55.294Z,-1.99
2023-03-04T04:43:36.942Z,-2.03
2023-03-04T04:44:18.713Z,-1.93
2023-03-04T04:45:00.359Z,-1.90
2023-03-04T04:45:42.002Z,-1.93
2023-03-04T04:46:23.787Z,-2.01
2023-03-04T04:47:07.224Z,-2.15
2023-03-04T04:47:48.947Z,-1.95
2023-03-04T04:48:30.577Z,-1.83
2023-03-04T04:49:12.242Z,-1.79
2023-03-04T04:49:53.838Z,-1.89
2023-03-04T04:50:35.525Z,-1.79
2023-03-04T04:51:17.185Z,-1.73
2023-03-04T04:51:58.797Z,-2.02
2023-03-04T04:52:40.479Z,-1.74
2023-03-04T04:53:22.140Z,-1.74
2023-03-04T04:54:04.545Z,-1.75
2023-03-04T04:54:46.244Z,-1.74
2023-03-04T04:55:28.305Z,-1.94
2023-03-04T04:56:16.243Z,-1.81
2023-03-04T04:56:57.808Z,-1.75
2023-03-04T04:57:39.482Z,-1.74
2023-03-04T04:58:21.179Z,-2.02
2023-03-04T04:59:05.507Z,-2.23
2023-03-04T04:59:47.105Z,-2.14
2023-03-04T05:00:28.745Z,-1.71
2023-03-04T05:01:10.514Z,-1.64
2023-03-04T05:01:52.212Z,-1.95
2023-03-04T05:02:37.579Z,-1.49
2023-03-04T05:03:21.423Z,-1.40
2023-03-04T05:04:04.557Z,-1.35
2023-03-04T05:04:46.397Z,-1.33
2023-03-04T05:05:28.007Z,-1.31
2023-03-04T05:06:11.307Z,-1.34
2023-03-04T05:06:53.003Z,-1.22
2023-03-04T05:07:34.776Z,-1.15
2023-03-04T05:08:16.538Z,-1.23
2023-03-04T05:08:58.167Z,-1.10
2023-03-04T05:09:39.773Z,-1.06
2023-03-04T05:10:21.374Z,-0.98
2023-03-04T05:11:04.598Z,-0.96
2023-03-04T05:11:46.354Z,-0.99
2023-03-04T05:12:27.981Z,-0.97
2023-03-04T05:13:09.569Z,-0.98
2023-03-04T05:13:51.532Z,-1.05
2023-03-04T05:14:33.167Z,-1.03
2023-03-04T05:15:14.840Z,-1.13
2023-03-04T05:15:57.145Z,-1.03
2023-03-04T05:16:38.772Z,-1.04
2023-03-04T05:17:20.344Z,-1.06
2023-03-04T05:18:01.937Z,-1.07
2023-03-04T05:18:43.734Z,-1.06
2023-03-04T05:19:25.350Z,-1.04
2023-03-04T05:20:07.375Z,-1.02
2023-03-04T05:20:53.198Z,-1.10
2023-03-04T05:21:34.891Z,-1.01
2023-03-04T05:22:16.508Z,-1.04
2023-03-04T05:22:58.236Z,-1.04
2023-03-04T05:23:41.807Z,-1.12
2023-03-04T05:24:23.384Z,-1.04
2023-03-04T05:25:05.581Z,-1.08
2023-03-04T05:25:47.838Z,-0.99
2023-03-04T05:26:29.556Z,-0.96
2023-03-04T05:27:11.405Z,-1.16
2023-03-04T05:27:53.119Z,-0.95
2023-03-04T05:28:35.414Z,-1.25
2023-03-04T05:29:17.042Z,-0.95
2023-03-04T05:30:01.612Z,-1.00
2023-03-04T05:30:44.930Z,-0.85
2023-03-04T05:31:26.731Z,-0.86
2023-03-04T05:32:08.568Z,-0.95
2023-03-04T05:32:50.207Z,-0.88
2023-03-04T05:33:31.860Z,-0.80
2023-03-04T05:34:13.430Z,-0.79
2023-03-04T05:34:55.079Z,-1.10
2023-03-04T05:35:37.517Z,-0.81
2023-03-04T05:36:19.174Z,-1.12
2023-03-04T05:37:00.788Z,-0.75
2023-03-04T05:37:42.500Z,-0.63
2023-03-04T05:38:25.605Z,-0.63
2023-03-04T05:39:07.249Z,-0.63
2023-03-04T05:39:48.904Z,-0.67
2023-03-04T05:40:30.612Z,-0.65
2023-03-04T05:41:12.208Z,-0.73
2023-03-04T05:41:53.780Z,-0.67
2023-03-04T05:42:35.333Z,-0.75
2023-03-04T05:43:17.210Z,-0.61
2023-03-04T05:43:58.798Z,-0.58
2023-03-04T05:44:40.382Z,-0.55
2023-03-04T05:45:22.628Z,-0.53
2023-03-04T05:46:04.770Z,-0.56
2023-03-04T05:46:46.534Z,-0.64
2023-03-04T05:47:28.110Z,-0.51
2023-03-04T05:48:09.856Z,-0.54
2023-03-04T05:48:53.088Z,-0.62
2023-03-04T05:49:34.717Z,-0.57
2023-03-04T05:50:16.600Z,-0.65
2023-03-04T05:51:00.177Z,-0.51
2023-03-04T05:51:41.841Z,-0.67
2023-03-04T05:52:23.450Z,-0.52
2023-03-04T05:53:05.163Z,-0.54
2023-03-04T05:53:47.303Z,-0.67
2023-03-04T05:54:28.899Z,-0.55
2023-03-04T05:55:11.050Z,-0.71
2023-03-04T05:55:53.059Z,-0.54
2023-03-04T05:56:34.904Z,-0.52
2023-03-04T05:57:16.561Z,-0.51
2023-03-04T05:57:58.425Z,-0.48
2023-03-04T05:58:40.016Z,-0.44
2023-03-04T05:59:21.643Z,-0.42
2023-03-04T06:00:09.397Z,-0.40
2023-03-04T06:01:00.428Z,-0.37
2023-03-04T06:01:41.978Z,-0.39
2023-03-04T06:02:23.696Z,-0.29
2023-03-04T06:03:05.416Z,-0.24
2023-03-04T06:03:49.220Z,-0.20
2023-03-04T06:04:30.966Z,-0.32
2023-03-04T06:05:14.236Z,-0.27
2023-03-04T06:05:56.069Z,-0.44
2023-03-04T06:06:37.697Z,-0.73
2023-03-04T06:07:19.302Z,-0.34
2023-03-04T06:08:00.952Z,-0.38
2023-03-04T06:08:42.644Z,-0.53
2023-03-04T06:09:24.325Z,-0.41
2023-03-04T06:10:07.257Z,-0.84
2023-03-04T06:10:52.931Z,-0.50
2023-03-04T06:11:36.313Z,-0.39
2023-03-04T06:12:18.123Z,-0.65
2023-03-04T06:12:59.833Z,-0.39
2023-03-04T06:13:41.493Z,-0.38
2023-03-04T06:14:23.167Z,-0.40
2023-03-04T06:15:06.155Z,-0.28
2023-03-04T06:15:48.026Z,-0.37
2023-03-04T06:16:29.676Z,-0.40
2023-03-04T06:17:11.351Z,-0.20
2023-03-04T06:17:52.980Z,-0.19
2023-03-04T06:18:34.652Z,-0.18
2023-03-04T06:19:16.266Z,-0.22
2023-03-04T06:19:57.910Z,-0.20
2023-03-04T06:20:39.505Z,-0.12
2023-03-04T06:21:21.190Z,-0.10
2023-03-04T06:22:02.790Z,-0.07
2023-03-04T06:22:44.397Z,-0.18
2023-03-04T06:23:26.895Z,-0.03
2023-03-04T06:24:08.739Z,0.00
2023-03-04T06:24:50.547Z,0.00
2023-03-04T06:25:33.253Z,0.00
2023-03-04T06:26:15.710Z,-0.14
2023-03-04T06:26:57.454Z,-0.04
2023-03-04T06:27:39.172Z,-0.03
2023-03-04T06:28:21.197Z,-0.08
2023-03-04T06:29:02.834Z,-0.09
2023-03-04T06:29:44.576Z,0.03
2023-03-04T06:30:26.406Z,0.10
2023-03-04T06:31:08.146Z,0.18
2023-03-04T06:31:49.813Z,0.21
2023-03-04T06:32:31.508Z,-0.12
2023-03-04T06:33:13.106Z,0.22
2023-03-04T06:33:54.950Z,0.18
2023-03-04T06:34:37.311Z,-0.63
2023-03-04T06:35:19.287Z,0.02
2023-03-04T06:36:01.354Z,0.09
2023-03-04T06:36:43.156Z,0.08
2023-03-04T06:37:24.760Z,-0.01
2023-03-04T06:38:06.395Z,0.03
2023-03-04T06:38:47.997Z,0.21
2023-03-04T06:39:29.651Z,0.26
2023-03-04T06:40:12.318Z,0.33
2023-03-04T06:40:57.119Z,0.39
2023-03-04T06:41:39.093Z,0.38
2023-03-04T06:42:20.725Z,0.39
2023-03-04T06:43:02.402Z,0.42
2023-03-04T06:43:44.154Z,0.46
2023-03-04T06:44:25.844Z,0.49
2023-03-04T06:45:09.237Z,0.43
2023-03-04T06:45:50.871Z,0.46
2023-03-04T06:46:36.292Z,0.52
2023-03-04T06:47:18.922Z,0.61
2023-03-04T06:48:00.541Z,0.31
2023-03-04T06:48:42.249Z,0.41
2023-03-04T06:49:24.107Z,0.52
2023-03-04T06:50:06.256Z,0.49
2023-03-04T06:50:47.913Z,0.49
2023-03-04T06:51:30.431Z,0.47
2023-03-04T06:52:12.936Z,0.35
2023-03-04T06:52:57.342Z,0.38
2023-03-04T06:53:40.150Z,0.52
2023-03-04T06:54:21.940Z,0.61
2023-03-04T06:55:04.213Z,0.66
2023-03-04T06:55:47.106Z,0.60
2023-03-04T06:56:28.748Z,0.61
2023-03-04T06:57:10.501Z,0.81
2023-03-04T06:57:52.137Z,0.84
2023-03-04T06:58:34.014Z,0.90
2023-03-04T06:59:15.780Z,0.92
2023-03-04T06:59:57.465Z,0.82
2023-03-04T07:00:39.121Z,1.03
2023-03-04T07:01:24.311Z,1.04
2023-03-04T07:02:06.578Z,1.01
2023-03-04T07:02:48.239Z,1.08
2023-03-04T07:03:29.883Z,0.71
2023-03-04T07:04:14.091Z,1.03
2023-03-04T07:04:55.814Z,0.38
2023-03-04T07:05:37.422Z,1.15
2023-03-04T07:06:21.395Z,1.18
2023-03-04T07:07:03.037Z,1.16
2023-03-04T07:07:44.638Z,1.11
2023-03-04T07:08:26.250Z,1.21
2023-03-04T07:09:08.111Z,1.09
2023-03-04T07:09:49.734Z,1.13
2023-03-04T07:10:31.403Z,1.23
2023-03-04T07:11:14.429Z,1.07
2023-03-04T07:11:56.072Z,1.29
2023-03-04T07:12:37.851Z,0.79
2023-03-04T07:13:19.422Z,1.31
2023-03-04T07:14:01.089Z,1.37
2023-03-04T07:14:42.735Z,1.42
2023-03-04T07:15:24.349Z,1.26
2023-03-04T07:16:08.294Z,1.46
2023-03-04T07:16:49.930Z,1.37
2023-03-04T07:17:31.520Z,1.35
2023-03-04T07:18:13.221Z,0.92
2023-03-04T07:18:54.865Z,1.24
2023-03-04T07:19:36.998Z,0.46
2023-03-04T07:20:18.728Z,1.20
2023-03-04T07:21:00.282Z,1.22
2023-03-04T07:21:41.850Z,1.16
2023-03-04T07:22:23.427Z,1.16
2023-03-04T07:23:05.180Z,1.04
2023-03-04T07:23:47.244Z,1.07
2023-03-04T07:24:28.981Z,0.94
2023-03-04T07:25:10.728Z,1.00
2023-03-04T07:25:52.388Z,0.99
2023-03-04T07:26:34.104Z,0.55
2023-03-04T07:27:15.755Z,0.91
2023-03-04T07:27:57.400Z,1.07
2023-03-04T07:28:39.360Z,1.14
2023-03-04T07:29:20.938Z,1.21
2023-03-04T07:30:02.578Z,1.20
2023-03-04T07:30:44.497Z,1.36
2023-03-04T07:31:31.559Z,1.29
2023-03-04T07:32:13.545Z,1.39
2023-03-04T07:32:58.487Z,1.37
2023-03-04T07:33:40.166Z,1.47
2023-03-04T07:34:21.848Z,1.44
2023-03-04T07:35:04.200Z,1.51
2023-03-04T07:35:46.018Z,1.63
2023-03-04T07:36:28.172Z,1.68
2023-03-04T07:37:10.077Z,1.71
2023-03-04T07:37:51.688Z,1.78
2023-03-04T07:38:33.391Z,1.72
2023-03-04T07:39:15.038Z,1.62
2023-03-04T07:39:56.584Z,1.95
2023-03-04T07:40:38.582Z,1.94
2023-03-04T07:41:21.837Z,2.02
2023-03-04T07:42:03.548Z,2.06
2023-03-04T07:42:55.863Z,2.12
2023-03-04T07:43:37.542Z,2.17
2023-03-04T07:44:19.176Z,1.96
2023-03-04T07:45:01.906Z,2.19
2023-03-04T07:45:43.607Z,2.33
2023-03-04T07:46:25.827Z,2.37
2023-03-04T07:47:07.462Z,2.33
2023-03-04T07:47:49.669Z,2.30
2023-03-04T07:48:31.459Z,2.27
2023-03-04T07:49:13.946Z,2.25
2023-03-04T07:49:56.137Z,2.09
2023-03-04T07:50:37.779Z,1.78
2023-03-04T07:51:21.525Z,2.16
2023-03-04T07:52:05.287Z,2.08
2023-03-04T07:52:50.811Z,2.07
2023-03-04T07:53:33.399Z,1.88
2023-03-04T07:54:15.119Z,1.95
2023-03-04T07:54:56.922Z,1.96
2023-03-04T07:55:38.635Z,1.82
2023-03-04T07:56:23.841Z,1.89
2023-03-04T07:57:05.622Z,1.92
2023-03-04T07:57:48.186Z,1.89
2023-03-04T07:58:29.999Z,1.76
2023-03-04T07:59:11.628Z,1.86
2023-03-04T07:59:53.305Z,1.86
2023-03-04T08:00:34.910Z,1.85
2023-03-04T08:01:22.752Z,1.82
2023-03-04T08:02:04.500Z,1.79
2023-03-04T08:02:46.285Z,1.79
2023-03-04T08:03:29.518Z,1.72
2023-03-04T08:04:11.203Z,1.74
2023-03-04T08:04:52.811Z,1.67
2023-03-04T08:05:34.372Z,1.82
2023-03-04T08:06:17.740Z,1.87
2023-03-04T08:06:59.359Z,1.83
2023-03-04T08:07:41.228Z,1.94
2023-03-04T08:08:22.851Z,1.91
2023-03-04T08:09:06.798Z,1.96
2023-03-04T08:09:48.509Z,1.96
2023-03-04T08:10:30.104Z,1.89
2023-03-04T08:11:14.709Z,1.95
2023-03-04T08:11:56.321Z,1.86
2023-03-04T08:12:37.882Z,1.94
2023-03-04T08:13:19.544Z,1.97
2023-03-04T08:14:01.494Z,2.03
2023-03-04T08:14:43.182Z,2.06
2023-03-04T08:15:27.220Z,1.78
2023-03-04T08:16:13.128Z,2.16
2023-03-04T08:16:54.838Z,1.84
2023-03-04T08:17:36.458Z,2.21
2023-03-04T08:18:18.132Z,2.13
2023-03-04T08:19:01.940Z,2.14
2023-03-04T08:19:43.786Z,2.14
2023-03-04T08:20:25.509Z,2.27
2023-03-04T08:21:12.186Z,2.30
2023-03-04T08:21:53.800Z,2.31
2023-03-04T08:22:35.483Z,2.34
2023-03-04T08:23:17.110Z,2.40
2023-03-04T08:24:02.516Z,2.35
2023-03-04T08:24:44.251Z,2.53
2023-03-04T08:25:25.891Z,2.49
2023-03-04T08:26:10.649Z,2.68
2023-03-04T08:26:52.277Z,2.44
2023-03-04T08:27:34.019Z,2.86
2023-03-04T08:28:15.809Z,2.95
2023-03-04T08:29:00.755Z,3.02
2023-03-04T08:29:43.052Z,3.08
2023-03-04T08:30:25.238Z,3.05
2023-03-04T08:31:08.153Z,2.95
2023-03-04T08:31:52.088Z,2.95
2023-03-04T08:32:34.433Z,2.98
2023-03-04T08:33:16.276Z,2.85
2023-03-04T08:33:58.019Z,1.53
2023-03-04T08:34:40.804Z,3.00
2023-03-04T08:35:22.522Z,2.89
2023-03-04T08:36:04.527Z,3.01
2023-03-04T08:36:47.241Z,3.08
2023-03-04T08:37:31.964Z,3.08
2023-03-04T08:38:13.613Z,3.14
2023-03-04T08:38:55.315Z,3.28
2023-03-04T08:39:37.729Z,3.34
2023-03-04T08:40:19.594Z,3.41
2023-03-04T08:41:03.717Z,3.45
2023-03-04T08:41:46.423Z,3.48
2023-03-04T08:42:28.058Z,3.12
2023-03-04T08:43:10.286Z,3.32
2023-03-04T08:43:51.918Z,3.42
2023-03-04T08:44:33.544Z,3.37
2023-03-04T08:45:15.223Z,3.28
2023-03-04T08:45:56.925Z,3.27
2023-03-04T08:46:40.712Z,3.28
2023-03-04T08:47:22.883Z,3.22
2023-03-04T08:48:05.144Z,2.98
2023-03-04T08:48:47.202Z,3.03
2023-03-04T08:49:29.213Z,2.93
2023-03-04T08:50:11.396Z,3.00
2023-03-04T08:50:53.457Z,3.04
2023-03-04T08:51:35.888Z,3.11
2023-03-04T08:52:17.699Z,2.86
2023-03-04T08:52:59.359Z,2.88
2023-03-04T08:53:41.622Z,2.68
2023-03-04T08:54:23.290Z,3.03
2023-03-04T08:55:05.462Z,3.03
2023-03-04T08:55:47.262Z,3.04
2023-03-04T08:56:28.928Z,3.10
2023-03-04T08:57:10.642Z,3.11
2023-03-04T08:57:52.290Z,3.12
2023-03-04T08:58:34.027Z,3.09
2023-03-04T08:59:15.706Z,2.84
2023-03-04T08:59:57.375Z,2.87
2023-03-04T09:00:43.032Z,2.94
2023-03-04T09:01:24.818Z,2.87
2023-03-04T09:02:07.193Z,2.88
2023-03-04T09:02:48.849Z,2.49
2023-03-04T09:03:31.644Z,2.85
2023-03-04T09:04:13.342Z,2.78
2023-03-04T09:04:54.979Z,2.68
2023-03-04T09:05:36.652Z,2.68
2023-03-04T09:06:18.845Z,2.41
2023-03-04T09:07:00.499Z,2.65
2023-03-04T09:07:42.129Z,2.27
2023-03-04T09:08:24.290Z,2.55
2023-03-04T09:09:05.990Z,2.57
2023-03-04T09:09:47.629Z,2.53
2023-03-04T09:10:29.272Z,2.60
2023-03-04T09:11:11.376Z,2.64
2023-03-04T09:11:53.084Z,2.68
2023-03-04T09:12:34.770Z,2.71
2023-03-04T09:13:16.580Z,2.63